createdAt,value
2023-02-25T00:00:00.911Z,974.25
2023-02-25T00:01:00.867Z,974.28
2023-02-25T00:02:04.282Z,974.27
2023-02-25T00:03:00.653Z,974.25
2023-02-25T00:04:00.634Z,974.22
2023-02-25T00:05:00.805Z,974.25
2023-02-25T00:06:00.587Z,974.25
2023-02-25T00:07:00.604Z,974.27
2023-02-25T00:08:00.765Z,974.17
2023-02-25T00:09:00.574Z,974.23
2023-02-25T00:10:00.545Z,974.30
2023-02-25T00:11:00.555Z,974.24
2023-02-25T00:12:00.505Z,974.26
2023-02-25T00:13:15.958Z,974.18
2023-02-25T00:14:00.498Z,974.21
2023-02-25T00:15:00.500Z,974.14
2023-02-25T00:16:00.451Z,974.18
2023-02-25T00:17:00.515Z,974.13
2023-02-25T00:18:00.456Z,974.09
2023-02-25T00:19:00.616Z,974.09
2023-02-25T00:20:00.433Z,974.11
2023-02-25T00:21:00.393Z,974.23
2023-02-25T00:22:00.368Z,974.18
2023-02-25T00:23:00.427Z,974.24
2023-02-25T00:24:15.205Z,974.19
2023-02-25T00:25:00.328Z,974.18
2023-02-25T00:26:00.313Z,974.19
2023-02-25T00:27:00.332Z,974.18
2023-02-25T00:28:00.324Z,974.20
2023-02-25T00:29:00.338Z,974.26
2023-02-25T00:30:00.273Z,974.19
2023-02-25T00:31:00.328Z,974.17
2023-02-25T00:32:00.506Z,974.22
2023-02-25T00:33:00.270Z,974.24
2023-02-25T00:34:00.357Z,974.22
2023-02-25T00:35:00.259Z,974.22
2023-02-25T00:36:00.228Z,974.17
2023-02-25T00:37:00.251Z,974.16
2023-02-25T00:38:13.885Z,974.15
2023-02-25T00:39:00.241Z,974.22
2023-02-25T00:40:00.132Z,974.23
2023-02-25T00:41:00.118Z,974.18
2023-02-25T00:42:00.108Z,974.20
2023-02-25T00:43:00.130Z,974.16
2023-02-25T00:44:00.106Z,974.20
2023-02-25T00:45:00.057Z,974.23
2023-02-25T00:46:00.159Z,974.23
2023-02-25T00:47:00.032Z,974.33
2023-02-25T00:48:00.085Z,974.35
2023-02-25T00:49:00.037Z,974.29
2023-02-25T00:50:00.012Z,974.25
2023-02-25T00:50:59.984Z,974.26
2023-02-25T00:52:00.429Z,974.24
2023-02-25T00:52:59.935Z,974.19
2023-02-25T00:53:59.975Z,974.21
2023-02-25T00:54:59.909Z,974.24
2023-02-25T00:55:59.899Z,974.19
2023-02-25T00:56:59.886Z,974.23
2023-02-25T00:57:59.881Z,974.23
2023-02-25T00:58:59.901Z,974.24
2023-02-25T00:59:59.877Z,974.23
2023-02-25T01:00:59.834Z,974.20
2023-02-25T01:01:59.934Z,974.17
2023-02-25T01:02:59.905Z,974.27
2023-02-25T01:03:59.808Z,974.22
2023-02-25T01:04:59.812Z,974.17
2023-02-25T01:05:59.783Z,974.24
2023-02-25T01:07:01.025Z,974.12
2023-02-25T01:07:59.720Z,974.10
2023-02-25T01:08:59.731Z,974.11
2023-02-25T01:09:59.733Z,974.09
2023-02-25T01:10:59.703Z,974.07
2023-02-25T01:11:59.704Z,974.01
2023-02-25T01:12:59.679Z,974.08
2023-02-25T01:13:59.796Z,974.08
2023-02-25T01:14:59.655Z,974.07
2023-02-25T01:15:59.672Z,974.09
2023-02-25T01:16:59.599Z,974.04
2023-02-25T01:17:59.640Z,974.11
2023-02-25T01:18:59.606Z,973.99
2023-02-25T01:19:59.564Z,974.07
2023-02-25T01:20:59.569Z,974.14
2023-02-25T01:21:59.576Z,974.12
2023-02-25T01:22:59.610Z,974.16
2023-02-25T01:23:59.515Z,974.21
2023-02-25T01:24:59.900Z,974.19
2023-02-25T01:25:59.522Z,974.33
2023-02-25T01:26:59.484Z,974.30
2023-02-25T01:27:59.459Z,974.29
2023-02-25T01:28:59.450Z,974.32
2023-02-25T01:29:59.423Z,974.28
2023-02-25T01:30:59.569Z,974.33
2023-02-25T01:31:59.590Z,974.31
2023-02-25T01:32:59.403Z,974.36
2023-02-25T01:33:59.389Z,974.35
2023-02-25T01:34:59.356Z,974.34
2023-02-25T01:35:59.355Z,974.43
2023-02-25T01:36:59.357Z,974.34
2023-02-25T01:37:59.365Z,974.43
2023-02-25T01:38:59.335Z,974.39
2023-02-25T01:39:59.289Z,974.38
2023-02-25T01:40:59.307Z,974.37
2023-02-25T01:41:59.298Z,974.29
2023-02-25T01:42:59.266Z,974.38
2023-02-25T01:43:59.276Z,974.30
2023-02-25T01:44:59.244Z,974.34
2023-02-25T01:45:59.209Z,974.30
2023-02-25T01:46:59.381Z,974.32
2023-02-25T01:47:59.196Z,974.20
2023-02-25T01:48:59.185Z,974.16
2023-02-25T01:49:59.279Z,974.17
2023-02-25T01:50:59.372Z,974.25
2023-02-25T01:51:59.140Z,974.28
2023-02-25T01:52:59.124Z,974.30
2023-02-25T01:53:59.092Z,974.35
2023-02-25T01:54:59.093Z,974.40
2023-02-25T01:55:59.062Z,974.37
2023-02-25T01:56:59.080Z,974.43
2023-02-25T01:57:59.060Z,974.42
2023-02-25T01:58:59.031Z,974.53
2023-02-25T01:59:59.036Z,974.40
2023-02-25T02:00:59.117Z,974.41
2023-02-25T02:01:58.982Z,974.53
2023-02-25T02:02:58.984Z,974.47
2023-02-25T02:03:58.984Z,974.53
2023-02-25T02:04:58.944Z,974.54
2023-02-25T02:05:58.999Z,974.51
2023-02-25T02:06:58.955Z,974.45
2023-02-25T02:07:59.030Z,974.53
2023-02-25T02:08:58.889Z,974.46
2023-02-25T02:09:58.928Z,974.51
2023-02-25T02:10:58.850Z,974.51
2023-02-25T02:11:58.871Z,974.51
2023-02-25T02:12:58.845Z,974.46
2023-02-25T02:13:58.802Z,974.48
2023-02-25T02:14:58.849Z,974.51
2023-02-25T02:15:58.827Z,974.42
2023-02-25T02:16:58.791Z,974.49
2023-02-25T02:17:58.788Z,974.50
2023-02-25T02:18:58.725Z,974.47
2023-02-25T02:19:58.754Z,974.46
2023-02-25T02:20:58.695Z,974.46
2023-02-25T02:21:58.956Z,974.48
2023-02-25T02:22:58.689Z,974.43
2023-02-25T02:23:58.696Z,974.45
2023-02-25T02:24:58.688Z,974.42
2023-02-25T02:25:58.691Z,974.39
2023-02-25T02:26:58.677Z,974.45
2023-02-25T02:27:58.830Z,974.45
2023-02-25T02:28:58.653Z,974.46
2023-02-25T02:29:58.643Z,974.38
2023-02-25T02:30:58.608Z,974.41
2023-02-25T02:31:58.747Z,974.35
2023-02-25T02:32:58.549Z,974.38
2023-02-25T02:33:58.628Z,974.35
2023-02-25T02:34:58.573Z,974.39
2023-02-25T02:35:58.507Z,974.44
2023-02-25T02:36:58.484Z,974.39
2023-02-25T02:37:58.722Z,974.44
2023-02-25T02:38:58.483Z,974.43
2023-02-25T02:39:58.487Z,974.46
2023-02-25T02:40:58.436Z,974.45
2023-02-25T02:41:58.417Z,974.48
2023-02-25T02:42:58.446Z,974.46
2023-02-25T02:43:58.391Z,974.46
2023-02-25T02:44:58.393Z,974.35
2023-02-25T02:45:58.437Z,974.43
2023-02-25T02:46:58.587Z,974.45
2023-02-25T02:47:58.371Z,974.49
2023-02-25T02:48:58.349Z,974.47
2023-02-25T02:49:58.315Z,974.51
2023-02-25T02:50:58.351Z,974.50
2023-02-25T02:51:58.350Z,974.54
2023-02-25T02:52:58.253Z,974.49
2023-02-25T02:53:58.278Z,974.53
2023-02-25T02:54:58.233Z,974.48
2023-02-25T02:55:58.226Z,974.44
2023-02-25T02:56:58.216Z,974.53
2023-02-25T02:57:58.190Z,974.54
2023-02-25T02:58:58.208Z,974.51
2023-02-25T02:59:58.217Z,974.57
2023-02-25T03:00:58.258Z,974.50
2023-02-25T03:01:58.172Z,974.50
2023-02-25T03:02:58.386Z,974.51
2023-02-25T03:03:58.147Z,974.48
2023-02-25T03:04:58.073Z,974.50
2023-02-25T03:05:58.064Z,974.51
2023-02-25T03:06:58.064Z,974.46
2023-02-25T03:07:58.045Z,974.48
2023-02-25T03:08:58.023Z,974.48
2023-02-25T03:09:58.055Z,974.46
2023-02-25T03:10:58.036Z,974.46
2023-02-25T03:11:58.022Z,974.48
2023-02-25T03:12:57.980Z,974.52
2023-02-25T03:13:57.975Z,974.55
2023-02-25T03:14:57.961Z,974.51
2023-02-25T03:15:57.953Z,974.49
2023-02-25T03:16:58.040Z,974.50
2023-02-25T03:17:57.940Z,974.56
2023-02-25T03:18:57.911Z,974.52
2023-02-25T03:19:57.956Z,974.57
2023-02-25T03:20:57.888Z,974.52
2023-02-25T03:21:57.912Z,974.55
2023-02-25T03:22:57.838Z,974.57
2023-02-25T03:23:57.821Z,974.57
2023-02-25T03:24:57.826Z,974.55
2023-02-25T03:25:57.833Z,974.56
2023-02-25T03:26:57.784Z,974.57
2023-02-25T03:27:57.781Z,974.53
2023-02-25T03:28:57.774Z,974.52
2023-02-25T03:29:57.782Z,974.57
2023-02-25T03:30:57.824Z,974.56
2023-02-25T03:31:57.867Z,974.61
2023-02-25T03:32:57.714Z,974.56
2023-02-25T03:33:57.700Z,974.60
2023-02-25T03:34:57.916Z,974.59
2023-02-25T03:35:57.677Z,974.62
2023-02-25T03:36:57.652Z,974.61
2023-02-25T03:37:57.650Z,974.59
2023-02-25T03:38:57.656Z,974.57
2023-02-25T03:39:57.877Z,974.61
2023-02-25T03:40:57.602Z,974.64
2023-02-25T03:41:57.683Z,974.64
2023-02-25T03:42:57.595Z,974.62
2023-02-25T03:43:57.580Z,974.67
2023-02-25T03:44:57.567Z,974.67
2023-02-25T03:45:57.618Z,974.66
2023-02-25T03:46:57.533Z,974.67
2023-02-25T03:47:57.510Z,974.66
2023-02-25T03:48:57.522Z,974.59
2023-02-25T03:49:57.548Z,974.70
2023-02-25T03:50:57.484Z,974.66
2023-02-25T03:51:57.434Z,974.72
2023-02-25T03:52:57.449Z,974.70
2023-02-25T03:53:57.723Z,974.72
2023-02-25T03:54:57.417Z,974.68
2023-02-25T03:55:57.393Z,974.70
2023-02-25T03:56:57.402Z,974.79
2023-02-25T03:57:57.388Z,974.76
2023-02-25T03:58:57.348Z,974.75
2023-02-25T03:59:57.340Z,974.75
2023-02-25T04:00:57.301Z,974.70
2023-02-25T04:01:57.308Z,974.74
2023-02-25T04:02:57.289Z,974.78
2023-02-25T04:03:57.272Z,974.79
2023-02-25T04:04:57.333Z,974.78
2023-02-25T04:05:57.224Z,974.78
2023-02-25T04:06:57.253Z,974.72
2023-02-25T04:07:57.210Z,974.79
2023-02-25T04:08:57.212Z,974.78
2023-02-25T04:09:57.203Z,974.70
2023-02-25T04:10:57.179Z,974.74
2023-02-25T04:11:57.237Z,974.74
2023-02-25T04:12:57.147Z,974.81
2023-02-25T04:13:57.148Z,974.82
2023-02-25T04:14:57.141Z,974.78
2023-02-25T04:15:57.176Z,974.81
2023-02-25T04:16:57.128Z,974.79
2023-02-25T04:17:57.097Z,974.77
2023-02-25T04:18:57.061Z,974.79
2023-02-25T04:19:57.048Z,974.80
2023-02-25T04:20:57.047Z,974.79
2023-02-25T04:21:57.027Z,974.85
2023-02-25T04:22:57.023Z,974.85
2023-02-25T04:23:56.995Z,974.91
2023-02-25T04:24:56.982Z,974.89
2023-02-25T04:25:56.985Z,974.92
2023-02-25T04:26:56.959Z,974.87
2023-02-25T04:27:56.944Z,974.89
2023-02-25T04:28:56.961Z,974.99
2023-02-25T04:29:56.923Z,975.00
2023-02-25T04:30:57.096Z,974.95
2023-02-25T04:31:57.089Z,974.99
2023-02-25T04:32:56.876Z,975.02
2023-02-25T04:33:56.859Z,974.97
2023-02-25T04:34:56.845Z,975.06
2023-02-25T04:35:56.812Z,974.94
2023-02-25T04:36:56.820Z,975.02
2023-02-25T04:37:56.781Z,975.01
2023-02-25T04:38:56.780Z,975.06
2023-02-25T04:39:56.791Z,975.00
2023-02-25T04:40:56.764Z,974.94
2023-02-25T04:41:56.765Z,975.08
2023-02-25T04:42:56.753Z,975.06
2023-02-25T04:43:56.734Z,975.06
2023-02-25T04:44:56.697Z,975.01
2023-02-25T04:45:56.754Z,975.09
2023-02-25T04:46:56.698Z,975.07
2023-02-25T04:47:56.680Z,975.08
2023-02-25T04:48:56.670Z,975.09
2023-02-25T04:49:56.637Z,975.10
2023-02-25T04:50:56.602Z,975.08
2023-02-25T04:51:56.658Z,975.14
2023-02-25T04:52:56.628Z,975.03
2023-02-25T04:53:56.588Z,975.09
2023-02-25T04:54:56.540Z,975.06
2023-02-25T04:55:56.579Z,975.08
2023-02-25T04:56:56.516Z,975.13
2023-02-25T04:57:56.555Z,975.11
2023-02-25T04:58:56.553Z,975.03
2023-02-25T04:59:56.517Z,975.06
2023-02-25T05:00:56.672Z,975.00
2023-02-25T05:01:56.544Z,975.07
2023-02-25T05:02:56.489Z,975.12
2023-02-25T05:03:56.454Z,975.11
2023-02-25T05:04:56.549Z,975.13
2023-02-25T05:05:56.422Z,975.09
2023-02-25T05:06:56.414Z,975.15
2023-02-25T05:07:56.384Z,975.13
2023-02-25T05:08:56.377Z,975.19
2023-02-25T05:09:56.379Z,975.17
2023-02-25T05:10:56.367Z,975.13
2023-02-25T05:11:56.419Z,975.15
2023-02-25T05:12:56.407Z,975.19
2023-02-25T05:13:56.506Z,975.17
2023-02-25T05:14:56.318Z,975.20
2023-02-25T05:15:56.351Z,975.24
2023-02-25T05:16:56.275Z,975.24
2023-02-25T05:17:56.283Z,975.27
2023-02-25T05:18:56.244Z,975.31
2023-02-25T05:19:56.365Z,975.30
2023-02-25T05:20:56.231Z,975.27
2023-02-25T05:21:56.207Z,975.32
2023-02-25T05:22:56.202Z,975.25
2023-02-25T05:23:56.201Z,975.27
2023-02-25T05:24:56.167Z,975.28
2023-02-25T05:25:56.150Z,975.33
2023-02-25T05:26:56.115Z,975.39
2023-02-25T05:27:56.119Z,975.41
2023-02-25T05:28:56.144Z,975.42
2023-02-25T05:29:56.175Z,975.41
2023-02-25T05:30:56.122Z,975.51
2023-02-25T05:31:56.255Z,975.43
2023-02-25T05:32:56.205Z,975.42
2023-02-25T05:33:56.061Z,975.45
2023-02-25T05:34:56.033Z,975.45
2023-02-25T05:35:56.023Z,975.51
2023-02-25T05:36:56.196Z,975.41
2023-02-25T05:37:55.992Z,975.43
2023-02-25T05:38:55.971Z,975.49
2023-02-25T05:39:55.968Z,975.50
2023-02-25T05:40:55.957Z,975.51
2023-02-25T05:41:55.914Z,975.42
2023-02-25T05:42:55.918Z,975.48
2023-02-25T05:43:55.894Z,975.58
2023-02-25T05:44:55.867Z,975.46
2023-02-25T05:45:55.848Z,975.45
2023-02-25T05:46:55.915Z,975.57
2023-02-25T05:47:55.835Z,975.57
2023-02-25T05:48:55.817Z,975.55
2023-02-25T05:49:55.840Z,975.49
2023-02-25T05:50:55.848Z,975.54
2023-02-25T05:51:55.759Z,975.58
2023-02-25T05:52:55.737Z,975.58
2023-02-25T05:53:55.742Z,975.53
2023-02-25T05:54:55.734Z,975.61
2023-02-25T05:55:55.941Z,975.58
2023-02-25T05:56:55.752Z,975.65
2023-02-25T05:57:55.710Z,975.61
2023-02-25T05:58:55.685Z,975.62
2023-02-25T05:59:55.647Z,975.66
2023-02-25T06:00:55.754Z,975.68
2023-02-25T06:01:55.649Z,975.64
2023-02-25T06:02:55.736Z,975.61
2023-02-25T06:03:55.628Z,975.71
2023-02-25T06:04:55.613Z,975.75
2023-02-25T06:05:55.645Z,975.79
2023-02-25T06:06:55.613Z,975.78
2023-02-25T06:07:55.582Z,975.79
2023-02-25T06:08:55.566Z,975.79
2023-02-25T06:09:55.555Z,975.88
2023-02-25T06:10:55.522Z,975.88
2023-02-25T06:11:55.517Z,975.81
2023-02-25T06:12:55.484Z,975.83
2023-02-25T06:13:55.500Z,975.87
2023-02-25T06:14:55.484Z,975.80
2023-02-25T06:15:55.497Z,975.85
2023-02-25T06:16:55.474Z,975.82
2023-02-25T06:17:55.410Z,975.85
2023-02-25T06:18:55.435Z,975.87
2023-02-25T06:19:55.395Z,975.85
2023-02-25T06:20:55.359Z,975.89
2023-02-25T06:21:55.389Z,975.88
2023-02-25T06:22:55.349Z,975.82
2023-02-25T06:23:55.332Z,975.85
2023-02-25T06:24:55.307Z,975.79
2023-02-25T06:25:55.290Z,975.82
2023-02-25T06:26:55.308Z,975.90
2023-02-25T06:27:55.289Z,975.86
2023-02-25T06:28:55.253Z,975.86
2023-02-25T06:29:55.244Z,975.91
2023-02-25T06:30:55.297Z,975.84
2023-02-25T06:31:55.358Z,975.89
2023-02-25T06:32:55.251Z,975.89
2023-02-25T06:33:55.272Z,975.98
2023-02-25T06:34:55.198Z,976.01
2023-02-25T06:35:55.143Z,976.02
2023-02-25T06:36:55.154Z,975.97
2023-02-25T06:37:55.152Z,976.04
2023-02-25T06:38:55.121Z,976.09
2023-02-25T06:39:55.098Z,976.15
2023-02-25T06:40:55.106Z,976.09
2023-02-25T06:41:55.070Z,976.12
2023-02-25T06:42:55.062Z,976.09
2023-02-25T06:43:55.045Z,976.10
2023-02-25T06:44:55.033Z,976.16
2023-02-25T06:45:55.065Z,976.13
2023-02-25T06:46:54.990Z,976.10
2023-02-25T06:47:54.997Z,976.13
2023-02-25T06:48:54.989Z,976.16
2023-02-25T06:49:54.957Z,976.14
2023-02-25T06:50:54.952Z,976.21
2023-02-25T06:51:54.924Z,976.24
2023-02-25T06:52:54.920Z,976.26
2023-02-25T06:53:54.938Z,976.28
2023-02-25T06:54:54.912Z,976.31
2023-02-25T06:55:54.909Z,976.28
2023-02-25T06:56:54.868Z,976.28
2023-02-25T06:57:54.858Z,976.32
2023-02-25T06:58:54.865Z,976.33
2023-02-25T06:59:54.846Z,976.38
2023-02-25T07:00:54.885Z,976.36
2023-02-25T07:01:54.889Z,976.36
2023-02-25T07:02:54.813Z,976.44
2023-02-25T07:03:54.760Z,976.45
2023-02-25T07:04:54.891Z,976.41
2023-02-25T07:05:54.730Z,976.48
2023-02-25T07:06:54.751Z,976.40
2023-02-25T07:07:54.793Z,976.46
2023-02-25T07:08:54.704Z,976.49
2023-02-25T07:09:54.698Z,976.48
2023-02-25T07:10:54.816Z,976.48
2023-02-25T07:11:54.651Z,976.50
2023-02-25T07:12:54.681Z,976.45
2023-02-25T07:13:54.623Z,976.45
2023-02-25T07:14:54.619Z,976.49
2023-02-25T07:15:54.653Z,976.54
2023-02-25T07:16:54.577Z,976.58
2023-02-25T07:17:54.780Z,976.59
2023-02-25T07:18:54.585Z,976.57
2023-02-25T07:19:54.537Z,976.57
2023-02-25T07:20:54.538Z,976.59
2023-02-25T07:21:54.559Z,976.58
2023-02-25T07:22:54.528Z,976.62
2023-02-25T07:23:54.514Z,976.63
2023-02-25T07:24:54.576Z,976.66
2023-02-25T07:25:54.516Z,976.65
2023-02-25T07:26:54.446Z,976.69
2023-02-25T07:27:54.470Z,976.68
2023-02-25T07:28:54.419Z,976.66
2023-02-25T07:29:54.442Z,976.70
2023-02-25T07:30:54.525Z,976.75
2023-02-25T07:31:54.588Z,976.75
2023-02-25T07:32:54.504Z,976.68
2023-02-25T07:33:54.374Z,976.78
2023-02-25T07:34:54.364Z,976.69
2023-02-25T07:35:54.525Z,976.76
2023-02-25T07:36:54.335Z,976.76
2023-02-25T07:37:54.310Z,976.78
2023-02-25T07:38:54.367Z,976.75
2023-02-25T07:39:54.297Z,976.80
2023-02-25T07:40:54.275Z,976.79
2023-02-25T07:41:54.290Z,976.78
2023-02-25T07:42:54.292Z,976.85
2023-02-25T07:43:54.251Z,976.84
2023-02-25T07:44:54.274Z,976.92
2023-02-25T07:45:54.228Z,976.88
2023-02-25T07:46:54.206Z,976.87
2023-02-25T07:47:54.220Z,976.88
2023-02-25T07:48:54.407Z,976.84
2023-02-25T07:49:54.180Z,976.88
2023-02-25T07:50:54.155Z,976.85
2023-02-25T07:51:54.107Z,976.89
2023-02-25T07:52:54.105Z,976.87
2023-02-25T07:53:54.149Z,976.85
2023-02-25T07:54:54.080Z,976.93
2023-02-25T07:55:54.074Z,976.88
2023-02-25T07:56:54.087Z,976.89
2023-02-25T07:57:54.064Z,976.84
2023-02-25T07:58:54.028Z,976.85
2023-02-25T07:59:54.009Z,976.89
2023-02-25T08:00:54.011Z,976.93
2023-02-25T08:01:53.988Z,976.92
2023-02-25T08:02:54.507Z,976.87
2023-02-25T08:03:53.953Z,976.95
2023-02-25T08:04:54.048Z,976.94
2023-02-25T08:05:53.959Z,976.99
2023-02-25T08:06:53.922Z,976.90
2023-02-25T08:07:53.909Z,976.93
2023-02-25T08:08:53.905Z,976.90
2023-02-25T08:09:53.894Z,976.93
2023-02-25T08:10:53.854Z,976.84
2023-02-25T08:11:53.844Z,976.86
2023-02-25T08:12:53.851Z,976.88
2023-02-25T08:13:53.932Z,976.85
2023-02-25T08:14:53.851Z,976.98
2023-02-25T08:15:53.826Z,976.92
2023-02-25T08:16:53.842Z,976.93
2023-02-25T08:17:53.758Z,976.93
2023-02-25T08:18:53.788Z,977.02
2023-02-25T08:19:53.755Z,976.84
2023-02-25T08:20:53.753Z,976.98
2023-02-25T08:21:53.760Z,976.94
2023-02-25T08:22:53.740Z,976.92
2023-02-25T08:23:53.717Z,976.93
2023-02-25T08:24:53.693Z,976.94
2023-02-25T08:25:53.673Z,976.94
2023-02-25T08:26:53.654Z,976.91
2023-02-25T08:27:53.669Z,976.96
2023-02-25T08:28:53.627Z,976.84
2023-02-25T08:29:53.639Z,976.93
2023-02-25T08:30:53.718Z,976.88
2023-02-25T08:31:53.852Z,976.89
2023-02-25T08:32:53.666Z,976.90
2023-02-25T08:33:53.602Z,976.94
2023-02-25T08:34:53.550Z,976.98
2023-02-25T08:35:53.529Z,976.91
2023-02-25T08:36:53.541Z,976.85
2023-02-25T08:37:53.617Z,976.76
2023-02-25T08:38:53.546Z,976.96
2023-02-25T08:39:53.481Z,976.97
2023-02-25T08:40:53.479Z,976.97
2023-02-25T08:41:53.471Z,976.95
2023-02-25T08:42:53.448Z,977.00
2023-02-25T08:43:53.506Z,977.02
2023-02-25T08:44:53.432Z,977.00
2023-02-25T08:45:53.446Z,977.03
2023-02-25T08:46:53.454Z,977.08
2023-02-25T08:47:53.405Z,977.05
2023-02-25T08:48:53.354Z,977.05
2023-02-25T08:49:53.352Z,977.11
2023-02-25T08:50:53.345Z,977.04
2023-02-25T08:51:53.327Z,977.11
2023-02-25T08:52:53.325Z,977.10
2023-02-25T08:53:53.302Z,977.05
2023-02-25T08:54:53.302Z,977.10
2023-02-25T08:55:53.259Z,977.14
2023-02-25T08:56:53.281Z,977.15
2023-02-25T08:57:53.228Z,977.16
2023-02-25T08:58:53.232Z,977.17
2023-02-25T08:59:53.216Z,977.18
2023-02-25T09:00:53.288Z,977.19
2023-02-25T09:01:53.215Z,977.18
2023-02-25T09:02:53.169Z,977.19
2023-02-25T09:03:53.547Z,977.25
2023-02-25T09:04:53.305Z,977.29
2023-02-25T09:05:53.150Z,977.25
2023-02-25T09:06:53.156Z,977.35
2023-02-25T09:07:53.134Z,977.31
2023-02-25T09:08:53.107Z,977.29
2023-02-25T09:09:53.086Z,977.30
2023-02-25T09:10:53.081Z,977.42
2023-02-25T09:11:53.116Z,977.35
2023-02-25T09:12:53.102Z,977.35
2023-02-25T09:13:53.035Z,977.27
2023-02-25T09:14:53.029Z,977.41
2023-02-25T09:15:53.014Z,977.46
2023-02-25T09:16:53.180Z,977.48
2023-02-25T09:17:53.026Z,977.46
2023-02-25T09:18:52.995Z,977.54
2023-02-25T09:19:52.993Z,977.52
2023-02-25T09:20:53.005Z,977.57
2023-02-25T09:21:52.932Z,977.55
2023-02-25T09:22:52.948Z,977.56
2023-02-25T09:23:52.978Z,977.54
2023-02-25T09:24:52.914Z,977.58
2023-02-25T09:25:52.856Z,977.60
2023-02-25T09:26:52.864Z,977.50
2023-02-25T09:27:52.857Z,977.57
2023-02-25T09:28:52.863Z,977.62
2023-02-25T09:29:52.893Z,977.60
2023-02-25T09:30:52.859Z,977.57
2023-02-25T09:31:52.962Z,977.55
2023-02-25T09:32:53.022Z,977.54
2023-02-25T09:33:52.796Z,977.64
2023-02-25T09:34:52.757Z,977.49
2023-02-25T09:35:52.737Z,977.60
2023-02-25T09:36:52.734Z,977.62
2023-02-25T09:37:52.723Z,977.55
2023-02-25T09:38:52.694Z,977.63
2023-02-25T09:39:52.696Z,977.63
2023-02-25T09:40:52.677Z,977.63
2023-02-25T09:41:55.500Z,977.63
2023-02-25T09:42:52.649Z,977.63
2023-02-25T09:43:52.708Z,977.63
2023-02-25T09:44:52.612Z,977.65
2023-02-25T09:45:52.709Z,977.61
2023-02-25T09:46:52.598Z,977.70
2023-02-25T09:47:52.634Z,977.72
2023-02-25T09:48:52.596Z,977.72
2023-02-25T09:49:52.579Z,977.77
2023-02-25T09:50:52.554Z,977.72
2023-02-25T09:51:52.541Z,977.77
2023-02-25T09:52:52.529Z,977.74
2023-02-25T09:53:52.511Z,977.78
2023-02-25T09:54:52.519Z,977.82
2023-02-25T09:55:52.514Z,977.79
2023-02-25T09:56:52.521Z,977.89
2023-02-25T09:57:52.455Z,977.86
2023-02-25T09:58:52.455Z,977.89
2023-02-25T09:59:52.455Z,977.84
2023-02-25T10:00:54.570Z,977.94
2023-02-25T10:01:52.469Z,977.91
2023-02-25T10:02:52.615Z,978.03
2023-02-25T10:03:52.379Z,978.01
2023-02-25T10:04:52.349Z,978.04
2023-02-25T10:05:52.456Z,978.08
2023-02-25T10:06:52.346Z,978.14
2023-02-25T10:07:52.310Z,978.12
2023-02-25T10:08:52.339Z,978.13
2023-02-25T10:09:52.325Z,978.24
2023-02-25T10:10:52.292Z,978.21
2023-02-25T10:11:52.267Z,978.32
2023-02-25T10:12:52.246Z,978.20
2023-02-25T10:13:52.252Z,978.30
2023-02-25T10:14:52.232Z,978.33
2023-02-25T10:15:53.251Z,978.37
2023-02-25T10:16:52.252Z,978.33
2023-02-25T10:17:52.199Z,978.31
2023-02-25T10:18:52.163Z,978.38
2023-02-25T10:19:52.157Z,978.41
2023-02-25T10:20:52.148Z,978.37
2023-02-25T10:21:52.161Z,978.42
2023-02-25T10:22:52.114Z,978.46
2023-02-25T10:23:52.137Z,978.47
2023-02-25T10:24:52.094Z,978.46
2023-02-25T10:25:52.081Z,978.50
2023-02-25T10:26:52.060Z,978.46
2023-02-25T10:27:52.097Z,978.48
2023-02-25T10:28:52.043Z,978.46
2023-02-25T10:29:52.047Z,978.50
2023-02-25T10:30:52.019Z,978.52
2023-02-25T10:31:52.166Z,978.53
2023-02-25T10:32:52.025Z,978.59
2023-02-25T10:33:52.002Z,978.57
2023-02-25T10:34:51.983Z,978.52
2023-02-25T10:35:51.984Z,978.55
2023-02-25T10:36:51.972Z,978.59
2023-02-25T10:37:51.960Z,978.67
2023-02-25T10:38:51.924Z,978.64
2023-02-25T10:39:51.906Z,978.64
2023-02-25T10:40:51.898Z,978.66
2023-02-25T10:41:51.860Z,978.63
2023-02-25T10:42:51.893Z,978.65
2023-02-25T10:43:51.853Z,978.65
2023-02-25T10:44:51.842Z,978.69
2023-02-25T10:45:51.948Z,978.70
2023-02-25T10:46:51.795Z,978.71
2023-02-25T10:47:51.776Z,978.71
2023-02-25T10:48:51.832Z,978.77
2023-02-25T10:49:51.795Z,978.76
2023-02-25T10:50:51.877Z,978.81
2023-02-25T10:51:51.755Z,978.80
2023-02-25T10:52:51.729Z,978.77
2023-02-25T10:53:51.775Z,978.77
2023-02-25T10:54:51.721Z,978.82
2023-02-25T10:55:51.780Z,978.76
2023-02-25T10:56:51.640Z,978.81
2023-02-25T10:57:51.692Z,978.77
2023-02-25T10:58:51.645Z,978.79
2023-02-25T10:59:51.613Z,978.78
2023-02-25T11:00:51.794Z,978.80
2023-02-25T11:01:51.674Z,978.79
2023-02-25T11:02:51.796Z,978.78
2023-02-25T11:03:51.599Z,978.77
2023-02-25T11:04:51.531Z,978.76
2023-02-25T11:05:51.748Z,978.87
2023-02-25T11:06:51.523Z,978.82
2023-02-25T11:07:51.595Z,978.74
2023-02-25T11:08:51.947Z,978.84
2023-02-25T11:09:51.495Z,978.75
2023-02-25T11:10:51.645Z,978.81
2023-02-25T11:11:51.479Z,978.87
2023-02-25T11:12:51.435Z,978.89
2023-02-25T11:13:51.454Z,978.88
2023-02-25T11:14:51.646Z,978.96
2023-02-25T11:15:51.434Z,978.93
2023-02-25T11:16:51.414Z,978.93
2023-02-25T11:17:51.402Z,979.00
2023-02-25T11:18:51.401Z,978.97
2023-02-25T11:19:51.367Z,978.97
2023-02-25T11:20:51.324Z,978.98
2023-02-25T11:21:51.320Z,978.98
2023-02-25T11:22:51.331Z,979.00
2023-02-25T11:23:51.294Z,978.98
2023-02-25T11:24:51.267Z,978.94
2023-02-25T11:25:51.295Z,978.99
2023-02-25T11:26:51.294Z,978.98
2023-02-25T11:27:51.270Z,978.99
2023-02-25T11:28:51.440Z,979.02
2023-02-25T11:29:51.226Z,979.03
2023-02-25T11:30:51.290Z,979.05
2023-02-25T11:31:51.416Z,979.05
2023-02-25T11:32:51.219Z,978.99
2023-02-25T11:33:51.143Z,979.07
2023-02-25T11:34:51.166Z,979.05
2023-02-25T11:35:51.134Z,979.05
2023-02-25T11:36:51.388Z,979.13
2023-02-25T11:37:51.147Z,979.10
2023-02-25T11:38:51.116Z,979.09
2023-02-25T11:39:51.128Z,979.10
2023-02-25T11:40:51.101Z,979.05
2023-02-25T11:41:51.100Z,979.06
2023-02-25T11:42:51.052Z,979.06
2023-02-25T11:43:51.044Z,979.12
2023-02-25T11:44:51.012Z,979.08
2023-02-25T11:45:50.993Z,979.10
2023-02-25T11:46:51.041Z,979.08
2023-02-25T11:47:50.995Z,979.10
2023-02-25T11:48:50.987Z,979.07
2023-02-25T11:49:50.968Z,978.99
2023-02-25T11:50:50.926Z,979.09
2023-02-25T11:51:51.145Z,979.08
2023-02-25T11:52:50.906Z,979.07
2023-02-25T11:53:50.996Z,979.11
2023-02-25T11:54:50.917Z,979.11
2023-02-25T11:55:50.880Z,979.12
2023-02-25T11:56:50.862Z,979.16
2023-02-25T11:57:50.911Z,979.13
2023-02-25T11:58:50.846Z,979.15
2023-02-25T11:59:50.840Z,979.08
2023-02-25T12:00:50.820Z,979.09
2023-02-25T12:01:50.839Z,979.13
2023-02-25T12:02:50.877Z,979.07
2023-02-25T12:03:50.838Z,979.08
2023-02-25T12:04:50.747Z,979.07
2023-02-25T12:05:50.793Z,979.11
2023-02-25T12:06:50.757Z,979.11
2023-02-25T12:08:05.040Z,979.11
2023-02-25T12:08:50.697Z,979.11
2023-02-25T12:09:50.675Z,979.11
2023-02-25T12:10:50.657Z,979.07
2023-02-25T12:11:50.653Z,979.09
2023-02-25T12:12:50.620Z,979.05
2023-02-25T12:13:50.724Z,979.09
2023-02-25T12:14:50.594Z,979.12
2023-02-25T12:15:50.641Z,979.11
2023-02-25T12:16:50.646Z,979.12
2023-02-25T12:17:50.574Z,979.08
2023-02-25T12:18:50.584Z,979.11
2023-02-25T12:19:50.744Z,979.17
2023-02-25T12:20:50.542Z,979.09
2023-02-25T12:21:50.565Z,979.11
2023-02-25T12:22:50.526Z,979.15
2023-02-25T12:23:50.515Z,979.13
2023-02-25T12:24:50.516Z,979.11
2023-02-25T12:25:50.487Z,979.06
2023-02-25T12:26:50.484Z,979.08
2023-02-25T12:27:50.471Z,979.09